createdAt,value
2022-10-15T00:03:36.783Z,7.70
2022-10-15T00:06:05.204Z,7.22
2022-10-15T00:08:32.977Z,7.00
2022-10-15T00:11:08.277Z,6.97
2022-10-15T00:13:36.112Z,7.00
2022-10-15T00:16:04.396Z,7.00
2022-10-15T00:18:32.372Z,6.03
2022-10-15T00:21:01.345Z,6.60
2022-10-15T00:23:29.046Z,5.97
2022-10-15T00:26:13.640Z,5.82
2022-10-15T00:28:41.433Z,5.60
2022-10-15T00:31:10.167Z,7.15
2022-10-15T00:33:38.123Z,7.03
2022-10-15T00:36:14.204Z,7.47
2022-10-15T00:38:42.084Z,6.88
2022-10-15T00:41:13.726Z,6.38
2022-10-15T00:43:41.932Z,5.68
2022-10-15T00:46:16.664Z,4.97
2022-10-15T00:48:44.813Z,4.55
2022-10-15T00:51:12.267Z,4.25
2022-10-15T00:53:39.925Z,4.57
2022-10-15T00:56:07.767Z,6.15
2022-10-15T00:58:35.848Z,5.82
2022-10-15T01:01:03.900Z,6.65
2022-10-15T01:03:32.072Z,7.70
2022-10-15T01:05:59.542Z,7.68
2022-10-15T01:08:26.995Z,8.13
2022-10-15T01:10:56.673Z,8.77
2022-10-15T01:13:32.856Z,9.00
2022-10-15T01:16:20.724Z,8.60
2022-10-15T01:19:00.584Z,9.10
2022-10-15T01:21:36.037Z,9.77
2022-10-15T01:24:25.802Z,13.98
2022-10-15T01:27:05.401Z,16.77
2022-10-15T01:29:50.835Z,21.35
2022-10-15T01:32:19.919Z,22.80
2022-10-15T01:35:00.553Z,26.48
2022-10-15T01:37:47.948Z,25.00
2022-10-15T01:40:22.070Z,25.45
2022-10-15T01:42:49.617Z,24.65
2022-10-15T01:45:22.331Z,25.35
2022-10-15T01:48:19.575Z,24.00
2022-10-15T01:50:48.583Z,22.17
2022-10-15T01:53:18.412Z,20.60
2022-10-15T01:55:46.249Z,20.50
2022-10-15T01:58:15.387Z,19.83
2022-10-15T02:00:43.858Z,18.77
2022-10-15T02:03:11.593Z,19.67
2022-10-15T02:05:41.601Z,23.52
2022-10-15T02:08:29.625Z,27.08
2022-10-15T02:11:04.589Z,27.83
2022-10-15T02:13:50.644Z,29.73
2022-10-15T02:16:26.430Z,29.83
2022-10-15T02:19:00.273Z,28.58
2022-10-15T02:21:47.855Z,29.77
2022-10-15T02:24:41.649Z,34.63
2022-10-15T02:27:09.871Z,31.88
2022-10-15T02:29:39.252Z,32.75
2022-10-15T02:32:08.331Z,33.58
2022-10-15T02:34:37.029Z,33.15
2022-10-15T02:37:05.690Z,32.25
2022-10-15T02:39:34.648Z,33.95
2022-10-15T02:42:05.069Z,33.67
2022-10-15T02:44:33.200Z,34.22
2022-10-15T02:47:02.946Z,31.55
2022-10-15T02:49:33.441Z,31.90
2022-10-15T02:52:00.935Z,31.85
2022-10-15T02:54:28.548Z,31.65
2022-10-15T02:56:56.182Z,31.95
2022-10-15T02:59:24.870Z,31.00
2022-10-15T03:01:53.486Z,31.58
2022-10-15T03:04:23.686Z,31.13
2022-10-15T03:06:52.046Z,31.73
2022-10-15T03:09:20.266Z,31.77
2022-10-15T03:11:48.085Z,32.03
2022-10-15T03:14:15.607Z,30.55
2022-10-15T03:16:43.260Z,29.52
2022-10-15T03:19:12.599Z,30.83
2022-10-15T03:21:40.968Z,32.42
2022-10-15T03:24:13.331Z,31.02
2022-10-15T03:26:40.859Z,29.98
2022-10-15T03:29:08.491Z,30.48
2022-10-15T03:31:42.749Z,29.48
2022-10-15T03:34:10.781Z,29.83
2022-10-15T03:36:38.154Z,29.67
2022-10-15T03:39:09.679Z,29.02
2022-10-15T03:41:38.773Z,27.70
2022-10-15T03:44:07.264Z,26.10
2022-10-15T03:46:37.225Z,26.15
2022-10-15T03:49:08.281Z,27.33
2022-10-15T03:51:37.082Z,24.27
2022-10-15T03:54:10.409Z,26.10
2022-10-15T03:56:46.028Z,28.65
2022-10-15T03:59:26.686Z,29.42
2022-10-15T04:02:00.330Z,27.65
2022-10-15T04:04:28.626Z,28.95
2022-10-15T04:06:56.297Z,29.42
2022-10-15T04:09:24.768Z,31.92
2022-10-15T04:11:53.775Z,31.77
2022-10-15T04:14:22.107Z,32.22
2022-10-15T04:16:50.453Z,33.05
2022-10-15T04:19:24.612Z,32.50
2022-10-15T04:22:00.155Z,31.95
2022-10-15T04:24:36.685Z,32.63
2022-10-15T04:27:05.260Z,30.77
2022-10-15T04:29:32.894Z,31.50
2022-10-15T04:32:15.589Z,31.17
2022-10-15T04:34:46.487Z,31.38
2022-10-15T04:37:15.733Z,31.75
2022-10-15T04:39:43.841Z,33.38
2022-10-15T04:42:14.119Z,32.90
2022-10-15T04:44:41.842Z,32.97
2022-10-15T04:47:09.525Z,34.00
2022-10-15T04:49:42.559Z,34.40
2022-10-15T04:52:26.996Z,35.30
2022-10-15T04:55:06.916Z,35.28
2022-10-15T04:57:38.501Z,36.17
2022-10-15T05:00:06.709Z,36.50
2022-10-15T05:02:34.601Z,36.78
2022-10-15T05:05:34.405Z,36.75
2022-10-15T05:08:06.553Z,38.15
2022-10-15T05:10:49.307Z,35.58
2022-10-15T05:13:17.506Z,36.70
2022-10-15T05:15:44.891Z,35.42
2022-10-15T05:18:12.841Z,36.03
2022-10-15T05:20:47.446Z,36.85
2022-10-15T05:23:19.734Z,37.17
2022-10-15T05:26:01.417Z,38.60
2022-10-15T05:28:29.030Z,39.72
2022-10-15T05:30:56.927Z,44.15
2022-10-15T05:33:24.457Z,44.70
2022-10-15T05:35:55.107Z,47.35
2022-10-15T05:38:24.630Z,48.83
2022-10-15T05:40:53.332Z,49.72
2022-10-15T05:43:25.002Z,49.08
2022-10-15T05:45:55.140Z,49.33
2022-10-15T05:48:24.344Z,51.38
2022-10-15T05:50:52.932Z,51.60
2022-10-15T05:53:26.744Z,52.13
2022-10-15T05:56:05.656Z,53.30
2022-10-15T05:58:37.171Z,52.67
2022-10-15T06:01:07.188Z,51.88
2022-10-15T06:03:39.166Z,49.92
2022-10-15T06:06:13.681Z,49.70
2022-10-15T06:08:41.596Z,51.45
2022-10-15T06:11:09.641Z,49.25
2022-10-15T06:13:41.506Z,49.88
2022-10-15T06:16:13.098Z,45.63
2022-10-15T06:18:40.965Z,44.38
2022-10-15T06:21:09.816Z,44.17
2022-10-15T06:23:40.335Z,41.40
2022-10-15T06:26:09.237Z,42.33
2022-10-15T06:28:37.694Z,41.45
2022-10-15T06:31:05.600Z,41.67
2022-10-15T06:33:36.738Z,40.63
2022-10-15T06:36:05.433Z,40.42
2022-10-15T06:38:35.468Z,40.00
2022-10-15T06:41:08.193Z,40.08
2022-10-15T06:43:36.628Z,38.83
2022-10-15T06:46:04.633Z,38.42
2022-10-15T06:48:41.987Z,38.75
2022-10-15T06:51:12.755Z,40.65
2022-10-15T06:53:46.936Z,39.17
2022-10-15T06:56:14.402Z,41.67
2022-10-15T06:58:46.125Z,40.90
2022-10-15T07:01:13.838Z,40.10
2022-10-15T07:03:44.214Z,39.08
2022-10-15T07:06:11.828Z,39.67
2022-10-15T07:08:39.639Z,38.97
2022-10-15T07:11:09.467Z,40.88
2022-10-15T07:13:37.267Z,37.90
2022-10-15T07:16:09.994Z,37.90
2022-10-15T07:18:37.841Z,38.35
2022-10-15T07:21:07.068Z,38.78
2022-10-15T07:23:35.457Z,37.85
2022-10-15T07:26:03.066Z,34.53
2022-10-15T07:28:30.956Z,35.58
2022-10-15T07:31:02.749Z,35.70
2022-10-15T07:33:30.250Z,33.38
2022-10-15T07:36:03.602Z,34.50
2022-10-15T07:38:31.061Z,33.83
2022-10-15T07:41:00.879Z,34.65
2022-10-15T07:43:29.110Z,33.80
2022-10-15T07:45:56.473Z,31.70
2022-10-15T07:48:25.222Z,32.58
2022-10-15T07:50:59.971Z,33.33
2022-10-15T07:53:27.717Z,31.65
2022-10-15T07:56:01.187Z,30.65
2022-10-15T07:58:34.877Z,30.10
2022-10-15T08:01:11.145Z,30.83
2022-10-15T08:03:39.025Z,29.63
2022-10-15T08:06:10.677Z,29.17
2022-10-15T08:08:38.358Z,27.08
2022-10-15T08:11:07.474Z,27.58
2022-10-15T08:13:35.716Z,27.75
2022-10-15T08:16:03.775Z,29.85
2022-10-15T08:18:31.441Z,27.70
2022-10-15T08:21:02.187Z,28.13
2022-10-15T08:23:30.426Z,28.88
2022-10-15T08:26:01.151Z,28.67
2022-10-15T08:28:29.542Z,27.83
2022-10-15T08:31:04.350Z,28.40
2022-10-15T08:33:34.583Z,27.83
2022-10-15T08:36:02.327Z,28.05
2022-10-15T08:38:30.930Z,26.48
2022-10-15T08:41:00.374Z,24.27
2022-10-15T08:43:27.881Z,26.00
2022-10-15T08:45:58.660Z,23.67
2022-10-15T08:48:33.657Z,24.15
2022-10-15T08:51:04.822Z,24.15
2022-10-15T08:53:37.384Z,22.77
2022-10-15T08:56:10.230Z,22.08
2022-10-15T08:58:39.721Z,21.50
2022-10-15T09:01:12.983Z,21.52
2022-10-15T09:03:56.203Z,20.48
2022-10-15T09:06:29.849Z,19.80
2022-10-15T09:09:16.487Z,18.70
2022-10-15T09:11:44.292Z,18.95
2022-10-15T09:14:17.900Z,18.60
2022-10-15T09:16:47.119Z,17.60
2022-10-15T09:19:19.575Z,16.33
2022-10-15T09:21:48.973Z,15.38
2022-10-15T09:24:24.054Z,14.93
2022-10-15T09:27:06.907Z,14.15
2022-10-15T09:29:38.265Z,13.90
2022-10-15T09:32:25.081Z,13.57
2022-10-15T09:35:00.499Z,13.75
2022-10-15T09:37:31.295Z,13.05
2022-10-15T09:40:08.541Z,12.82
2022-10-15T09:42:40.730Z,13.45
2022-10-15T09:45:13.999Z,14.00
2022-10-15T09:47:44.554Z,13.82
2022-10-15T09:52:55.364Z,12.55
2022-10-15T09:55:41.579Z,11.35
2022-10-15T09:58:13.988Z,11.48
2022-10-15T10:00:53.359Z,12.02
2022-10-15T10:03:23.483Z,11.77
2022-10-15T10:06:06.608Z,12.30
2022-10-15T10:08:55.992Z,11.57
2022-10-15T10:11:29.749Z,11.20
2022-10-15T10:14:01.471Z,11.15
2022-10-15T10:16:30.287Z,11.30
2022-10-15T10:19:06.033Z,13.23
2022-10-15T10:21:34.927Z,12.35
2022-10-15T10:24:23.858Z,12.45
2022-10-15T10:26:53.781Z,13.68
2022-10-15T10:29:33.383Z,13.05
2022-10-15T10:32:01.444Z,12.70
2022-10-15T10:34:33.218Z,14.18
2022-10-15T10:37:03.924Z,13.30
2022-10-15T10:39:31.464Z,13.95
2022-10-15T10:42:07.033Z,14.10
2022-10-15T10:44:36.030Z,12.77
2022-10-15T10:47:11.212Z,12.70
2022-10-15T10:49:38.674Z,12.20
2022-10-15T10:52:19.390Z,12.87
2022-10-15T10:54:47.835Z,13.15
2022-10-15T10:57:16.954Z,13.30
2022-10-15T10:59:53.897Z,11.50
2022-10-15T11:02:22.167Z,12.35
2022-10-15T11:04:50.009Z,12.05
2022-10-15T11:07:21.166Z,11.52
2022-10-15T11:09:56.476Z,11.40
2022-10-15T11:12:42.838Z,11.10
2022-10-15T11:15:36.625Z,10.57
2022-10-15T11:18:23.867Z,9.50
2022-10-15T11:21:07.028Z,9.55
2022-10-15T11:23:37.951Z,8.90
2022-10-15T11:26:14.299Z,8.63
2022-10-15T11:28:55.495Z,8.20
2022-10-15T11:32:03.011Z,7.93
2022-10-15T11:34:52.175Z,7.90
2022-10-15T11:37:29.100Z,8.60
2022-10-15T11:40:07.409Z,8.15
2022-10-15T11:42:58.315Z,7.90
2022-10-15T11:45:30.672Z,8.07
2022-10-15T11:48:01.659Z,7.75
2022-10-15T11:50:29.550Z,7.45
2022-10-15T11:52:57.070Z,7.78
2022-10-15T11:55:45.595Z,7.75
2022-10-15T11:58:30.026Z,7.60
2022-10-15T12:03:34.154Z,7.18
2022-10-15T12:06:07.136Z,7.50
2022-10-15T12:08:40.089Z,7.45
2022-10-15T12:11:24.228Z,7.45
2022-10-15T12:14:01.265Z,7.20
2022-10-15T12:16:37.659Z,7.72
2022-10-15T12:19:37.986Z,7.65
2022-10-15T12:22:12.268Z,7.65
2022-10-15T12:24:48.903Z,7.63
2022-10-15T12:27:20.072Z,7.63
2022-10-15T12:29:51.846Z,7.60
2022-10-15T12:32:22.021Z,7.75
2022-10-15T12:34:55.245Z,7.60
2022-10-15T12:37:25.246Z,7.18
2022-10-15T12:40:00.885Z,7.43
2022-10-15T12:42:37.787Z,7.97
2022-10-15T12:45:07.225Z,6.85
2022-10-15T12:47:49.175Z,6.72
2022-10-15T12:50:23.008Z,5.95
2022-10-15T12:52:50.584Z,6.00
2022-10-15T12:55:24.575Z,5.90
2022-10-15T12:57:56.037Z,6.20
2022-10-15T13:00:26.713Z,5.50
2022-10-15T13:02:55.404Z,6.03
2022-10-15T13:05:36.447Z,5.60
2022-10-15T13:08:06.023Z,6.00
2022-10-15T13:10:49.066Z,5.80
2022-10-15T13:13:19.012Z,6.30
2022-10-15T13:16:13.097Z,5.65
2022-10-15T13:18:42.568Z,5.60
2022-10-15T13:21:13.680Z,4.40
2022-10-15T13:23:46.388Z,4.53
2022-10-15T13:26:18.379Z,4.70
2022-10-15T13:28:49.410Z,4.60
2022-10-15T13:31:29.420Z,4.30
2022-10-15T13:34:24.130Z,3.67
2022-10-15T13:36:55.288Z,4.10
2022-10-15T13:39:29.656Z,4.15
2022-10-15T13:42:20.244Z,4.18
